Airfield :
LOGIN :

Register | Disclaimer

   EN    FR    IT 

 










Legend :    VFR   Marginal VFR   IFR   Intensive IFR   Very Intensive IFR
Visi :
Ceiling :
>= 8 km
>= 3000ft
5 to 8 km
1000 to 3000 ft
1500m to 5 km
500 to 1000 ft
800 to 1500m
200 to 500 ft
< 800m
< 200 ft
Symbols :   Thunderstorms  Fog  Heavy snow  Heavy precipitations  Wind > 20 kt
SIGMETs :     Misc.  Thunderstorms  Icing  Turbulence  Mountain Waves  Volcanic Ashes






- Airport Elevation : 512 ft
- IATA code : URO


LFOP - Rouen Vallée de Seine

CURRENT METAR :
  • 142330Z AUTO 04004KT CAVOK 02/01 Q1000

EXPIRED METARs :
  • 142300Z AUTO 05005KT CAVOK 02/01 Q1000
  • 142230Z AUTO 06005KT CAVOK 02/00 Q1000
  • 142200Z AUTO 06005KT CAVOK 02/01 Q1000
  • 142130Z AUTO 05004KT 9999 SCT031 OVC200 03/01 Q1000
  • 142100Z AUTO 06006KT 9999 OVC030 04/02 Q1000 BECMG 3000 BR

TAF TAF LFOP
Valid from the 14 at 18:00 until the 15 at 18:00 UTC


141700Z 1418/1518 VRB03KT 9999 SCT030
BECMG 1420/1423 3000 BR
PROB30 1500/1503 0300 FG VV///
BECMG 1503/1505 9999 NSW
TEMPO 1505/1518 2000 RADZ OVC004
ATIS : +33 2 35 80 80 34
Met : +33 2 32 86 52 80



MET'MAP, your aeronautical weather chart ! - Copyright ORBIFLY December 2007 - Disclaimer

ORBIFLY MET'MAP TEAM :

Programming & Development : Alexandra Zaïnal
Concept & Development : Baudouin d'Aumeries
Co-Development & Prog : Marc-Olivier Méhu
Technical & hardware support : Manuel Goepfert

Contact : metmap@orbifly.com




SOURCES & CREDITS :

   NOAA